Accueil
METAR-TAF:

METAR-TAF

Aéroports :

Paderborn-Lippstadt, Allemagne

latitude: 51-37N, longitude: 008-37E, altitude: 213 m

Observation

Le bulletin a été fait il y a 24 minutes, à 06:20 UTC
Vent 9 kt de est/sud-est, variant entre est et sud/sud-est
Température 22°C
Humidité 69%
Pression 1017 hPa
Visibilité 10 km ou plus
pas de nuages en-dessous de 1500 mètres et pas de cumulonimbus.

METAR: EDLP 110620Z 12009KT 090V150 CAVOK 22/16 Q1017

Heure: 08:44 (06:44 UTC)

Prévision

Le bulletin a été fait il y a 1 heure et 44 minutes, à 05:00 UTC
Prévision valable du 11 à 06 UTC au 12 à 06 UTC
Vent 10 kt de est/sud-est
Visibilité 10 km ou plus
pas de nuages en-dessous de 1500 mètres et pas de cumulonimbus.
Evoluant progressivement
du 11 à 17 UTC au 11 à 19 UTC
Vent 5 kt de sud-est

TAF: EDLP 110500Z 1106/1206 12010KT CAVOK BECMG 1117/1119 13005KT

Observations et prévisions météorologiques de plus de 4000 aéroports (messages METAR et TAF).

Les stations disponibles sont représentées par des disques jaunes et rouges sur la carte.

Passer la souris dessus pour voir le nom de la station.

Cliquer dessus pour voir les observations et prévisions météorologiques.

Pour changer de carte: cliquez sur les boutons verts avec une croix noire pour zoomer, sur le bouton vert avec un tiret pour effectuer un zoom arrière, ou sur les flèches vertes pour les cartes adjacentes.


METAR-TAF: